Time;durP1;ratioP1;P1;durP2;ratioP2;P2;SDS_P1;SDS_P2;PMS_P1;PMS_P2;Temp;Humidity;BMP_temperature;BMP_pressure;BME280_temperature;BME280_humidity;BME280_pressure;Samples;Min_cycle;Max_cycle;Signal;HPM_P1;HPM_P2
2023/05/10 00:01:08;;;;;;;4.40;0.65;;;;;;;21.47;40.76;101298.91;5055315;28;20426;-44
2023/05/10 00:03:34;;;;;;;1.20;0.50;;;;;;;21.34;39.24;101301.06;5055230;28;20029;-43
2023/05/10 00:06:00;;;;;;;1.30;0.50;;;;;;;21.29;38.66;101301.03;5054799;28;20025;-45
2023/05/10 00:08:26;;;;;;;2.55;0.60;;;;;;;21.41;38.57;101298.09;5055051;28;20029;-44
2023/05/10 00:10:53;;;;;;;1.98;0.50;;;;;;;21.38;40.07;101300.50;5054547;28;20039;-44
2023/05/10 00:13:19;;;;;;;0.88;0.55;;;;;;;21.56;39.84;101311.75;5054762;28;20124;-43
2023/05/10 00:15:45;;;;;;;1.35;0.47;;;;;;;21.68;37.71;101318.88;5054458;28;20135;-46
2023/05/10 00:18:12;;;;;;;1.83;0.45;;;;;;;21.64;39.04;101307.69;5054340;28;20029;-43
2023/05/10 00:20:38;;;;;;;2.70;0.50;;;;;;;21.33;40.98;101312.22;5054410;28;20044;-45
2023/05/10 00:23:04;;;;;;;1.70;0.50;;;;;;;21.49;38.86;101311.22;5054289;28;20071;-43
2023/05/10 00:25:30;;;;;;;2.08;0.60;;;;;;;21.53;39.00;101311.47;5054035;28;20029;-43
2023/05/10 00:27:57;;;;;;;2.22;0.50;;;;;;;21.58;40.21;101304.13;5054074;28;20044;-45
2023/05/10 00:30:23;;;;;;;2.85;0.60;;;;;;;21.31;41.29;101306.22;5054262;28;20025;-43
2023/05/10 00:32:49;;;;;;;4.70;0.60;;;;;;;21.10;42.04;101308.03;5052600;28;20029;-44
2023/05/10 00:35:16;;;;;;;2.72;0.70;;;;;;;20.72;42.16;101309.16;5042264;28;20432;-43
2023/05/10 00:37:42;;;;;;;1.55;0.30;;;;;;;20.77;41.79;101309.19;5049115;28;20067;-47
2023/05/10 00:40:09;;;;;;;2.97;0.60;;;;;;;20.88;41.98;101302.72;5051969;28;20242;-44
2023/05/10 00:42:36;;;;;;;2.20;0.60;;;;;;;20.91;42.03;101304.09;5043956;28;20104;-43
2023/05/10 00:45:02;;;;;;;3.63;0.57;;;;;;;20.58;41.98;101306.06;5033833;28;20188;-43
2023/05/10 00:47:29;;;;;;;1.75;0.60;;;;;;;20.43;43.18;101303.19;5050760;28;20036;-45
2023/05/10 00:49:55;;;;;;;2.33;0.50;;;;;;;20.27;43.32;101315.88;5053837;28;20032;-46
2023/05/10 00:52:23;;;;;;;1.35;0.60;;;;;;;20.21;43.74;101316.88;5053975;28;20254;-44
2023/05/10 00:54:52;;;;;;;1.52;0.55;;;;;;;20.15;43.87;101309.75;5043239;28;20032;-43
2023/05/10 00:57:19;;;;;;;3.88;0.57;;;;;;;20.16;43.28;101314.97;5062120;23;20049;-42
2023/05/10 00:59:46;;;;;;;1.88;0.65;;;;;;;20.31;42.25;101317.78;5064511;28;20483;-45
2023/05/10 01:02:13;;;;;;;2.70;0.63;;;;;;;19.99;43.81;101322.41;5053731;28;20096;-45
2023/05/10 01:04:39;;;;;;;0.73;0.50;;;;;;;19.96;43.36;101322.91;5052690;28;20025;-43
2023/05/10 01:07:05;;;;;;;2.33;0.60;;;;;;;19.95;43.64;101332.13;5052949;28;20538;-44
2023/05/10 01:09:32;;;;;;;2.80;0.70;;;;;;;19.90;43.49;101332.09;5053809;28;20065;-44
2023/05/10 01:12:00;;;;;;;2.28;0.50;;;;;;;19.87;42.85;101319.00;5064338;28;20017;-43
2023/05/10 01:14:27;;;;;;;2.83;0.60;;;;;;;19.67;41.87;101316.91;5072419;28;20025;-43
2023/05/10 01:16:54;;;;;;;2.17;0.50;;;;;;;19.50;43.58;101323.19;5073509;28;20028;-44
2023/05/10 01:19:26;;;;;;;2.70;0.82;;;;;;;19.17;45.37;101315.19;5073446;28;20039;-45
2023/05/10 01:22:29;;;;;;;2.88;0.80;;;;;;;19.09;44.95;101315.59;5073360;28;20029;-43
2023/05/10 01:25:16;;;;;;;3.83;0.55;;;;;;;19.08;44.43;101319.41;5072749;28;20024;-43
2023/05/10 01:28:08;;;;;;;3.30;0.70;;;;;;;19.11;46.32;101319.72;5073345;28;20035;-48
2023/05/10 01:31:04;;;;;;;1.83;0.50;;;;;;;18.95;45.26;101326.03;5072807;28;20052;-45
2023/05/10 01:33:45;;;;;;;1.50;0.50;;;;;;;18.69;46.08;101320.22;5045234;28;20096;-47
2023/05/10 01:36:35;;;;;;;1.17;0.60;;;;;;;18.90;45.05;101321.34;5035823;28;20038;-44
2023/05/10 01:39:15;;;;;;;1.67;0.65;;;;;;;18.94;46.40;101319.78;5033205;28;20033;-45
2023/05/10 01:42:08;;;;;;;1.10;0.52;;;;;;;18.98;46.10;101323.59;5053549;28;20481;-43
2023/05/10 01:44:46;;;;;;;1.67;0.70;;;;;;;19.10;45.23;101318.09;5056013;28;20041;-44
2023/05/10 01:47:51;;;;;;;1.63;0.40;;;;;;;19.15;44.97;101320.84;5053403;28;20025;-44
2023/05/10 01:50:28;;;;;;;1.13;0.50;;;;;;;18.93;45.68;101334.41;5043386;28;20040;-44
2023/05/10 01:52:59;;;;;;;1.38;0.40;;;;;;;19.08;46.02;101331.06;5038222;28;20035;-47
2023/05/10 01:55:32;;;;;;;3.10;0.75;;;;;;;19.05;45.71;101323.44;5052053;28;20115;-47
2023/05/10 01:58:13;;;;;;;1.30;0.43;;;;;;;19.15;45.99;101326.28;5052734;28;20049;-42
2023/05/10 02:00:44;;;;;;;2.22;0.60;;;;;;;19.32;45.67;101325.41;5042261;28;20293;-43
2023/05/10 02:03:12;;;;;;;1.33;0.50;;;;;;;19.14;46.08;101313.78;5041217;28;20032;-46
2023/05/10 02:05:41;;;;;;;1.60;0.40;;;;;;;19.11;44.56;101332.47;5031933;28;20116;-42
2023/05/10 02:08:08;;;;;;;4.05;0.40;;;;;;;18.96;45.28;101331.19;5039278;28;20482;-43
2023/05/10 02:10:35;;;;;;;1.55;0.50;;;;;;;18.93;45.59;101334.41;5032542;28;20044;-44
2023/05/10 02:13:03;;;;;;;1.00;0.43;;;;;;;19.13;44.97;101335.75;5032496;28;20095;-43
2023/05/10 02:15:31;;;;;;;1.30;0.57;;;;;;;19.13;44.51;101336.56;5032029;28;20091;-44
2023/05/10 02:17:58;;;;;;;0.90;0.30;;;;;;;19.17;44.44;101337.72;5031873;28;20075;-44
2023/05/10 02:20:25;;;;;;;0.63;0.50;;;;;;;19.07;45.00;101340.28;5053239;28;20070;-44
2023/05/10 02:22:54;;;;;;;0.85;0.40;;;;;;;18.90;44.78;101350.34;5062175;28;20021;-45
2023/05/10 02:25:22;;;;;;;1.35;0.60;;;;;;;19.23;44.69;101344.84;5051870;28;20507;-44
2023/05/10 02:27:50;;;;;;;1.10;0.47;;;;;;;19.14;44.47;101335.50;5052085;28;20036;-44
2023/05/10 02:30:18;;;;;;;1.85;0.50;;;;;;;19.30;44.17;101343.84;5044049;28;20024;-45
2023/05/10 02:32:45;;;;;;;1.65;0.57;;;;;;;19.26;43.87;101341.63;5045766;28;20025;-44
2023/05/10 02:35:12;;;;;;;4.38;0.57;;;;;;;19.36;43.89;101351.78;5037425;28;20044;-49
2023/05/10 02:37:41;;;;;;;0.88;0.50;;;;;;;18.74;45.74;101354.72;5036396;28;20087;-50
2023/05/10 02:40:09;;;;;;;2.58;0.43;;;;;;;18.46;46.63;101351.00;5052389;28;20388;-53
2023/05/10 02:42:38;;;;;;;1.50;0.60;;;;;;;18.16;47.60;101358.63;5044729;28;20470;-50
2023/05/10 02:45:13;;;;;;;1.00;0.40;;;;;;;17.75;48.87;101362.44;5048938;28;20031;-53
2023/05/10 02:47:39;;;;;;;1.33;0.75;;;;;;;17.35;49.94;101368.63;5044440;28;20037;-49
2023/05/10 02:50:07;;;;;;;4.55;0.85;;;;;;;17.61;48.98;101378.94;5034259;28;20029;-46
2023/05/10 02:52:44;;;;;;;0.88;0.60;;;;;;;17.46;48.69;101369.66;5050412;28;20536;-49
2023/05/10 02:55:15;;;;;;;1.15;0.60;;;;;;;17.23;49.94;101371.34;5063958;28;20086;-47
2023/05/10 02:57:54;;;;;;;1.60;0.32;;;;;;;17.16;49.85;101373.38;5071549;28;20614;-51
2023/05/10 03:00:20;;;;;;;1.58;0.50;;;;;;;16.78;51.21;101376.53;5042309;28;20064;-51
2023/05/10 03:02:47;;;;;;;1.13;0.50;;;;;;;16.54;51.49;101378.34;5057178;28;20029;-49
2023/05/10 03:05:13;;;;;;;0.88;0.40;;;;;;;16.63;51.54;101382.34;5071379;28;20021;-51
2023/05/10 03:07:39;;;;;;;1.45;0.57;;;;;;;16.39;51.98;101389.59;5069245;28;20071;-51
2023/05/10 03:10:06;;;;;;;3.15;0.90;;;;;;;16.22;53.10;101388.63;5052494;28;20504;-47
2023/05/10 03:12:56;;;;;;;1.83;0.55;;;;;;;16.06;53.61;101384.69;5052123;28;20547;-47
2023/05/10 03:15:48;;;;;;;2.05;0.52;;;;;;;15.84;54.36;101392.44;5071307;28;20058;-46
2023/05/10 03:18:33;;;;;;;1.67;0.52;;;;;;;15.59;55.10;101398.72;5054491;28;20044;-46
2023/05/10 03:21:05;;;;;;;2.53;0.60;;;;;;;15.54;55.20;101403.97;5051606;28;20028;-48
2023/05/10 03:23:41;;;;;;;2.33;0.70;;;;;;;15.61;55.47;101403.09;5050145;28;20557;-47
2023/05/10 03:26:08;;;;;;;3.33;0.90;;;;;;;15.38;55.62;101410.00;5051103;28;20078;-48
2023/05/10 03:28:37;;;;;;;0.95;0.60;;;;;;;15.41;56.11;101409.53;5051525;28;20112;-47
2023/05/10 03:31:05;;;;;;;2.20;0.80;;;;;;;15.44;56.01;101408.25;5075353;28;20027;-49
2023/05/10 03:33:32;;;;;;;2.78;0.80;;;;;;;15.35;55.93;101404.19;5057257;28;20037;-46
2023/05/10 03:35:58;;;;;;;1.80;0.57;;;;;;;15.34;56.14;101414.16;5048819;28;20032;-46
2023/05/10 03:38:24;;;;;;;1.60;0.63;;;;;;;15.38;55.99;101423.47;5043029;28;20155;-47
2023/05/10 03:40:50;;;;;;;1.35;0.60;;;;;;;15.23;56.72;101423.00;5057073;28;20515;-48
2023/05/10 03:43:17;;;;;;;3.65;0.65;;;;;;;15.27;55.84;101426.91;5054700;28;20033;-49
2023/05/10 03:45:43;;;;;;;1.23;0.45;;;;;;;15.23;56.02;101431.09;5055259;28;20029;-45
2023/05/10 03:48:09;;;;;;;2.45;0.50;;;;;;;15.15;56.37;101442.97;5054236;28;20091;-47
2023/05/10 03:50:35;;;;;;;1.92;0.60;;;;;;;15.08;56.71;101430.59;5060787;28;20066;-46
2023/05/10 03:53:02;;;;;;;1.60;0.50;;;;;;;14.99;57.27;101436.28;5075346;28;20032;-50
2023/05/10 03:55:29;;;;;;;2.17;0.77;;;;;;;14.87;57.41;101440.72;5062148;28;20140;-48
2023/05/10 03:57:55;;;;;;;2.45;0.50;;;;;;;14.84;57.64;101434.97;5054693;28;20040;-45
2023/05/10 04:00:21;;;;;;;1.80;0.70;;;;;;;14.78;57.43;101442.88;5054507;28;20021;-45
2023/05/10 04:02:48;;;;;;;1.98;0.70;;;;;;;14.75;57.72;101437.09;5057509;28;20036;-46
2023/05/10 04:05:14;;;;;;;1.00;0.52;;;;;;;14.73;58.32;101434.63;5054376;28;20466;-47
2023/05/10 04:07:40;;;;;;;1.58;0.70;;;;;;;14.78;58.15;101442.88;5053669;28;20112;-46
2023/05/10 04:10:07;;;;;;;3.63;0.60;;;;;;;14.98;57.03;101439.19;5046204;28;20025;-48
2023/05/10 04:12:33;;;;;;;2.88;0.73;;;;;;;14.78;57.97;101437.47;5054864;28;20417;-46
2023/05/10 04:15:00;;;;;;;3.80;0.98;;;;;;;14.96;57.53;101439.41;5054336;28;20401;-45
2023/05/10 04:17:26;;;;;;;3.63;0.77;;;;;;;14.81;58.20;101433.50;5053806;28;20086;-47
2023/05/10 04:19:54;;;;;;;2.05;0.60;;;;;;;14.88;57.93;101437.00;5054994;28;20029;-47
2023/05/10 04:22:20;;;;;;;0.63;0.60;;;;;;;14.92;57.93;101446.28;5054431;28;20025;-50
2023/05/10 04:24:47;;;;;;;2.15;0.80;;;;;;;14.84;58.16;101446.56;5054173;28;20032;-47
2023/05/10 04:27:13;;;;;;;1.58;0.55;;;;;;;14.83;58.14;101444.91;5054218;28;20029;-48
2023/05/10 04:29:39;;;;;;;1.52;0.68;;;;;;;14.76;58.15;101454.91;5054147;28;20377;-49
2023/05/10 04:32:05;;;;;;;3.08;0.82;;;;;;;14.81;57.63;101449.69;5054197;28;20068;-45
2023/05/10 04:34:33;;;;;;;3.55;0.70;;;;;;;14.75;58.30;101461.34;5053648;28;20036;-46
2023/05/10 04:37:00;;;;;;;4.53;0.93;;;;;;;14.63;58.53;101461.22;5047357;28;20374;-48
2023/05/10 04:39:26;;;;;;;2.28;0.80;;;;;;;14.41;59.13;101455.31;5054024;28;20424;-48
2023/05/10 04:41:52;;;;;;;1.52;0.70;;;;;;;14.34;58.97;101451.84;5054109;28;20028;-46
2023/05/10 04:44:19;;;;;;;1.70;0.80;;;;;;;14.41;58.45;101455.31;5053747;28;20028;-49
2023/05/10 04:46:46;;;;;;;1.52;0.60;;;;;;;14.49;57.72;101456.94;5053724;28;20025;-48
2023/05/10 04:49:12;;;;;;;3.58;0.80;;;;;;;14.36;57.92;101451.63;5054178;28;20037;-49
2023/05/10 04:51:38;;;;;;;4.60;1.00;;;;;;;14.26;58.04;101465.53;5053681;28;20040;-47
2023/05/10 04:54:04;;;;;;;1.90;0.70;;;;;;;14.30;57.66;101468.63;5054402;28;20029;-48
2023/05/10 04:56:31;;;;;;;2.45;1.08;;;;;;;14.29;57.58;101462.44;5053585;28;20469;-47
2023/05/10 04:58:57;;;;;;;1.65;0.70;;;;;;;14.35;57.66;101466.13;5052537;28;20110;-48
2023/05/10 05:01:23;;;;;;;3.35;0.85;;;;;;;14.28;57.56;101471.56;5052477;28;20060;-49
2023/05/10 05:03:50;;;;;;;1.00;0.60;;;;;;;14.18;58.10;101479.25;5052721;28;20058;-47
2023/05/10 05:06:16;;;;;;;2.20;0.75;;;;;;;14.30;57.38;101480.22;5052454;28;20033;-49
2023/05/10 05:08:42;;;;;;;0.85;0.50;;;;;;;14.48;56.90;101479.53;5052100;28;20035;-49
2023/05/10 05:11:09;;;;;;;2.08;0.77;;;;;;;14.34;58.14;101481.47;5053070;28;20028;-45
2023/05/10 05:13:35;;;;;;;4.30;0.80;;;;;;;14.37;57.75;101475.63;5052360;28;20029;-48
2023/05/10 05:16:05;;;;;;;3.05;1.00;;;;;;;14.47;57.97;101477.91;5052307;28;20438;-48
2023/05/10 05:18:31;;;;;;;2.33;0.80;;;;;;;14.43;58.16;101474.75;5052561;28;20035;-49
2023/05/10 05:20:57;;;;;;;3.15;0.75;;;;;;;14.40;58.06;101474.38;5052253;28;20021;-48
2023/05/10 05:23:24;;;;;;;3.88;0.65;;;;;;;14.42;57.68;101475.81;5052027;28;20128;-49
2023/05/10 05:25:53;;;;;;;2.20;0.85;;;;;;;14.42;57.27;101475.00;5052018;28;20056;-49
2023/05/10 05:28:22;;;;;;;2.97;0.85;;;;;;;14.40;56.97;101471.69;5052847;28;20540;-48
2023/05/10 05:30:49;;;;;;;2.88;0.93;;;;;;;14.34;57.50;101468.00;5052074;28;20493;-49
2023/05/10 05:33:15;;;;;;;1.00;0.60;;;;;;;14.31;57.39;101472.97;5052707;28;20761;-45
2023/05/10 05:35:44;;;;;;;2.25;0.60;;;;;;;14.33;57.47;101470.91;5048552;28;20025;-47
2023/05/10 05:38:10;;;;;;;1.60;0.68;;;;;;;14.33;56.45;101466.34;5032520;28;20421;-49
2023/05/10 05:40:36;;;;;;;1.38;0.52;;;;;;;14.30;56.27;101466.78;5032266;28;20029;-48
2023/05/10 05:43:03;;;;;;;2.55;0.50;;;;;;;14.25;56.47;101462.03;5055699;28;20025;-47
2023/05/10 05:45:29;;;;;;;1.77;0.70;;;;;;;14.22;56.01;101464.34;5070417;28;20040;-49
2023/05/10 05:47:56;;;;;;;2.60;0.70;;;;;;;14.13;56.53;101468.31;5063848;28;20115;-46
2023/05/10 05:50:22;;;;;;;2.42;0.70;;;;;;;14.17;56.41;101464.97;5068177;28;20036;-49
2023/05/10 05:52:48;;;;;;;3.42;0.60;;;;;;;14.18;56.43;101455.03;5064858;28;20086;-47
2023/05/10 05:55:14;;;;;;;2.67;0.90;;;;;;;14.12;56.19;101466.66;5064005;28;20030;-46
2023/05/10 05:57:41;;;;;;;3.13;0.70;;;;;;;14.07;56.30;101461.09;4981558;28;2287546;-50
2023/05/10 06:00:07;;;;;;;1.48;0.57;;;;;;;14.13;56.40;101455.66;5063567;28;20036;-48
2023/05/10 06:02:34;;;;;;;4.05;0.77;;;;;;;13.99;56.94;101464.84;5068044;28;20036;-48
2023/05/10 06:05:00;;;;;;;3.53;0.68;;;;;;;14.14;56.34;101468.09;5072350;28;20028;-49
2023/05/10 06:07:26;;;;;;;2.42;0.80;;;;;;;14.09;56.03;101459.81;5061034;28;20040;-49
2023/05/10 06:09:52;;;;;;;2.33;0.70;;;;;;;13.96;56.48;101459.91;5053038;28;20389;-46
2023/05/10 06:12:18;;;;;;;1.75;0.80;;;;;;;13.98;56.82;101455.94;5052244;28;20025;-48
2023/05/10 06:14:45;;;;;;;4.53;1.10;;;;;;;14.03;56.35;101451.78;5052057;28;20025;-47
2023/05/10 06:17:11;;;;;;;2.45;0.65;;;;;;;13.98;56.46;101460.50;5051040;28;20098;-47
2023/05/10 06:19:37;;;;;;;5.25;0.90;;;;;;;13.91;56.29;101446.25;5041473;28;20051;-49
2023/05/10 06:22:03;;;;;;;3.45;0.85;;;;;;;13.90;56.41;101448.13;5065446;28;20029;-46
2023/05/10 06:24:30;;;;;;;3.17;0.75;;;;;;;13.92;56.61;101442.50;5051707;28;20029;-45
2023/05/10 06:26:56;;;;;;;3.92;0.70;;;;;;;13.91;56.89;101447.06;5052138;28;20049;-45
2023/05/10 06:29:22;;;;;;;0.88;0.60;;;;;;;13.89;57.03;101438.41;5052007;28;20072;-46
2023/05/10 06:31:48;;;;;;;2.28;0.52;;;;;;;13.88;57.35;101441.28;5047982;28;20373;-47
2023/05/10 06:34:14;;;;;;;0.80;0.60;;;;;;;13.90;59.61;101433.84;5051518;28;20473;-46
2023/05/10 06:36:41;;;;;;;3.97;0.90;;;;;;;13.77;62.56;101444.63;5052190;28;20481;-45
2023/05/10 06:39:07;;;;;;;3.45;1.20;;;;;;;13.43;65.52;101444.72;5052009;28;20021;-47
2023/05/10 06:41:33;;;;;;;2.88;1.10;;;;;;;13.57;65.74;101442.84;5052027;28;20427;-45
2023/05/10 06:43:59;;;;;;;5.03;1.42;;;;;;;13.69;65.12;101443.00;5051571;28;20935;-46
2023/05/10 06:46:26;;;;;;;5.65;1.55;;;;;;;13.48;66.16;101439.53;5051998;28;20504;-49
2023/05/10 06:48:52;;;;;;;5.85;1.40;;;;;;;13.54;66.15;101434.34;5051433;28;20037;-46
2023/05/10 06:51:18;;;;;;;3.20;1.13;;;;;;;13.67;66.04;101434.34;5051766;28;20022;-46
2023/05/10 06:53:44;;;;;;;5.95;1.60;;;;;;;13.48;66.88;101438.72;5052370;28;20045;-46
2023/05/10 06:56:10;;;;;;;3.80;1.30;;;;;;;13.65;66.67;101445.28;5051735;28;20104;-46
2023/05/10 06:58:37;;;;;;;4.40;1.23;;;;;;;13.61;66.58;101443.25;5051310;28;20045;-45
2023/05/10 07:01:05;;;;;;;2.42;1.05;;;;;;;13.39;67.08;101438.13;5051740;28;20028;-49
2023/05/10 07:03:32;;;;;;;4.45;1.40;;;;;;;13.45;67.31;101439.16;5050520;28;20025;-47
2023/05/10 07:06:03;;;;;;;4.05;1.42;;;;;;;13.36;67.36;101443.91;5051542;28;20017;-46
2023/05/10 07:08:31;;;;;;;7.00;1.92;;;;;;;13.24;68.30;101432.16;5037567;28;20409;-47
2023/05/10 07:11:06;;;;;;;5.20;1.77;;;;;;;13.37;68.02;101428.59;5047637;28;20025;-48
2023/05/10 07:13:34;;;;;;;4.63;1.30;;;;;;;13.29;67.87;101432.34;5051277;28;20100;-49
2023/05/10 07:16:01;;;;;;;4.85;1.50;;;;;;;13.17;67.98;101423.25;5034089;28;20029;-45
2023/05/10 07:18:28;;;;;;;6.07;1.70;;;;;;;13.36;67.92;101425.09;5051405;28;20035;-48
2023/05/10 07:20:54;;;;;;;6.28;1.50;;;;;;;13.02;69.14;101422.63;5051437;28;20036;-46
2023/05/10 07:23:21;;;;;;;3.45;1.55;;;;;;;13.22;67.48;101419.97;5050911;28;20112;-48
2023/05/10 07:25:49;;;;;;;4.57;1.20;;;;;;;12.88;69.33;101424.47;5051337;28;20389;-47
2023/05/10 07:28:16;;;;;;;2.65;1.23;;;;;;;13.03;68.89;101418.91;5052012;28;20021;-47
2023/05/10 07:30:42;;;;;;;7.00;1.73;;;;;;;12.76;70.13;101424.28;5051267;28;20032;-49
2023/05/10 07:33:10;;;;;;;7.03;1.65;;;;;;;13.10;68.65;101427.78;5053619;28;20025;-46
2023/05/10 07:35:36;;;;;;;6.50;1.52;;;;;;;12.93;69.01;101425.50;5071347;28;20037;-46
2023/05/10 07:38:03;;;;;;;4.22;1.27;;;;;;;12.94;69.14;101424.50;5061347;28;20033;-44
2023/05/10 07:40:30;;;;;;;4.80;1.50;;;;;;;12.82;69.37;101426.13;5049776;28;20021;-46
2023/05/10 07:42:56;;;;;;;4.95;1.38;;;;;;;12.98;68.87;101416.00;5055249;28;20074;-47
2023/05/10 07:45:23;;;;;;;6.28;1.63;;;;;;;12.80;70.23;101422.00;5052338;28;20125;-45
2023/05/10 07:47:50;;;;;;;6.65;1.83;;;;;;;12.72;71.19;101422.22;5051274;28;20040;-47
2023/05/10 07:50:16;;;;;;;5.75;1.88;;;;;;;12.87;70.64;101428.22;5051486;28;20025;-45
2023/05/10 07:52:42;;;;;;;7.15;1.30;;;;;;;12.68;70.44;101424.50;5051139;28;20112;-45
2023/05/10 07:55:09;;;;;;;5.30;1.85;;;;;;;12.81;70.35;101429.03;5051022;28;20100;-45
2023/05/10 07:57:36;;;;;;;4.75;1.30;;;;;;;12.63;70.65;101427.78;5050805;28;20045;-45
2023/05/10 08:00:03;;;;;;;3.30;1.45;;;;;;;12.64;70.73;101423.25;5050965;28;20056;-47
2023/05/10 08:02:29;;;;;;;4.32;1.75;;;;;;;12.71;70.65;101424.06;5051610;28;20036;-46
2023/05/10 08:04:55;;;;;;;5.22;1.70;;;;;;;12.58;70.93;101424.06;5050303;28;20029;-45
2023/05/10 08:07:23;;;;;;;4.05;1.58;;;;;;;12.67;71.06;101430.91;5056871;28;20470;-46
2023/05/10 08:09:49;;;;;;;4.40;1.73;;;;;;;12.61;70.95;101432.53;5030347;28;20036;-48
2023/05/10 08:12:15;;;;;;;6.63;2.13;;;;;;;12.70;70.67;101430.47;5030253;28;20036;-48
2023/05/10 08:14:41;;;;;;;5.95;1.95;;;;;;;12.80;70.68;101433.59;5039135;28;20563;-47
2023/05/10 08:17:08;;;;;;;4.43;1.77;;;;;;;12.67;71.04;101425.53;5045238;28;20053;-48
2023/05/10 08:19:34;;;;;;;7.75;1.88;;;;;;;12.66;70.81;101421.19;5074089;28;20048;-48
2023/05/10 08:22:00;;;;;;;5.68;1.77;;;;;;;12.57;70.88;101422.41;5074799;28;20027;-46
2023/05/10 08:24:27;;;;;;;6.85;2.13;;;;;;;12.48;71.34;101423.63;5074388;28;20026;-46
2023/05/10 08:26:53;;;;;;;5.45;1.50;;;;;;;12.57;71.18;101427.78;5074728;28;20054;-45
2023/05/10 08:29:19;;;;;;;5.05;1.45;;;;;;;12.41;71.46;101429.00;5055069;28;20131;-45
2023/05/10 08:31:45;;;;;;;8.52;2.13;;;;;;;12.46;71.60;101418.47;5042365;28;20033;-45
2023/05/10 08:34:12;;;;;;;7.18;1.88;;;;;;;12.50;71.50;101416.22;5054783;28;20028;-45
2023/05/10 08:36:38;;;;;;;9.50;2.45;;;;;;;12.62;71.30;101417.25;5054375;28;20430;-46
2023/05/10 08:39:04;;;;;;;4.43;1.75;;;;;;;12.48;71.35;101407.53;5054285;28;20032;-47
2023/05/10 08:41:33;;;;;;;8.13;2.03;;;;;;;12.50;71.46;101405.47;5053828;28;20032;-49
2023/05/10 08:44:04;;;;;;;3.35;1.42;;;;;;;12.39;71.70;101410.41;5068436;28;20468;-46
2023/05/10 08:46:34;;;;;;;8.48;1.80;;;;;;;12.23;72.44;101404.59;5072352;28;20028;-49
2023/05/10 08:49:04;;;;;;;4.22;1.58;;;;;;;12.31;71.67;101407.91;5054152;28;20122;-46
2023/05/10 08:51:40;;;;;;;2.53;1.30;;;;;;;12.18;72.14;101409.75;5054708;28;20024;-46
2023/05/10 08:54:06;;;;;;;4.88;1.70;;;;;;;12.21;72.05;101402.09;5053515;28;20091;-48
2023/05/10 08:56:33;;;;;;;3.10;1.50;;;;;;;12.18;71.51;101407.88;5070921;23;20056;-44
2023/05/10 08:58:59;;;;;;;7.40;1.75;;;;;;;12.29;71.21;101407.28;5078282;28;20028;-45
2023/05/10 09:01:27;;;;;;;5.63;1.70;;;;;;;12.37;70.96;101393.66;5093845;28;20030;-48
2023/05/10 09:03:53;;;;;;;7.55;1.60;;;;;;;12.04;71.83;101400.81;5093764;28;20458;-45
2023/05/10 09:06:20;;;;;;;3.60;1.48;;;;;;;12.05;71.86;101397.13;5078633;28;20116;-46
2023/05/10 09:08:47;;;;;;;5.13;2.05;;;;;;;11.99;71.30;101404.09;5073815;28;20052;-46
2023/05/10 09:11:14;;;;;;;4.28;1.60;;;;;;;11.98;71.34;101398.94;5073611;28;20492;-48
2023/05/10 09:13:40;;;;;;;7.50;1.73;;;;;;;11.87;71.75;101392.31;5073396;28;20039;-47
2023/05/10 09:16:07;;;;;;;5.57;1.70;;;;;;;11.88;71.38;101389.44;5073397;28;20043;-49
2023/05/10 09:18:33;;;;;;;6.82;1.77;;;;;;;11.87;71.34;101394.97;5073502;28;20082;-47
2023/05/10 09:20:59;;;;;;;8.10;1.70;;;;;;;11.75;71.99;101388.50;5073406;28;20021;-48
2023/05/10 09:23:31;;;;;;;4.65;1.55;;;;;;;11.82;71.38;101384.84;5073027;28;20074;-48
2023/05/10 09:26:05;;;;;;;8.80;2.08;;;;;;;11.59;71.86;101381.63;5072523;28;20037;-47
2023/05/10 09:28:49;;;;;;;11.43;1.60;;;;;;;11.69;71.46;101379.41;5055549;28;20029;-48
2023/05/10 09:31:16;;;;;;;7.05;1.75;;;;;;;11.76;70.88;101380.25;5054211;28;20017;-47
2023/05/10 09:33:46;;;;;;;8.70;1.55;;;;;;;11.69;71.01;101382.09;5051083;28;20033;-46
2023/05/10 09:36:13;;;;;;;8.25;2.08;;;;;;;11.76;70.77;101387.47;5057128;28;20029;-48
2023/05/10 09:38:54;;;;;;;5.68;1.70;;;;;;;11.73;70.43;101388.72;5049822;28;20048;-47
2023/05/10 09:41:22;;;;;;;3.05;1.40;;;;;;;11.76;70.11;101384.78;5038234;28;20029;-48
2023/05/10 09:43:50;;;;;;;5.88;1.73;;;;;;;11.71;69.80;101388.06;5051752;28;20489;-47
2023/05/10 09:46:16;;;;;;;5.32;1.77;;;;;;;11.69;70.03;101384.78;5055555;28;20039;-48
2023/05/10 09:48:44;;;;;;;4.70;1.45;;;;;;;11.72;69.55;101381.72;5056208;28;20052;-45
2023/05/10 09:51:18;;;;;;;5.18;1.65;;;;;;;11.66;70.09;101385.19;5051703;28;20067;-47
2023/05/10 09:53:45;;;;;;;4.22;1.75;;;;;;;11.70;70.17;101383.75;5049181;28;20381;-46
2023/05/10 09:56:11;;;;;;;5.90;1.40;;;;;;;11.73;69.98;101385.22;5052320;28;20106;-45
2023/05/10 09:58:38;;;;;;;5.75;2.72;;;;;;;11.61;70.37;101379.59;5051484;28;20112;-45
2023/05/10 10:01:04;;;;;;;7.85;1.98;;;;;;;11.54;71.04;101384.91;5050323;28;20021;-47
2023/05/10 10:03:30;;;;;;;7.00;2.17;;;;;;;11.76;70.89;101388.31;5051236;28;20040;-44
2023/05/10 10:05:57;;;;;;;6.43;1.70;;;;;;;11.60;71.23;101389.50;5040471;28;20025;-43
2023/05/10 10:08:23;;;;;;;7.70;2.03;;;;;;;11.61;71.10;101393.84;5045870;28;20061;-44
2023/05/10 10:10:50;;;;;;;5.90;1.60;;;;;;;11.49;71.47;101397.25;5051077;28;20029;-44
2023/05/10 10:13:17;;;;;;;5.60;1.33;;;;;;;11.44;71.60;101389.84;5050903;28;20036;-43
2023/05/10 10:15:50;;;;;;;8.15;2.88;;;;;;;11.30;72.31;101398.81;5050998;28;20033;-48
2023/05/10 10:18:17;;;;;;;6.00;1.40;;;;;;;11.26;72.23;101402.91;5051305;28;20041;-44
2023/05/10 10:20:44;;;;;;;4.10;1.50;;;;;;;11.28;71.95;101407.06;5050143;28;20029;-43
2023/05/10 10:23:10;;;;;;;3.38;1.50;;;;;;;11.38;72.26;101406.69;5053120;28;20031;-43
2023/05/10 10:25:38;;;;;;;4.97;1.75;;;;;;;11.19;72.72;101402.88;5049957;28;20064;-45
2023/05/10 10:28:24;;;;;;;5.72;2.03;;;;;;;11.23;73.16;101395.28;5049847;28;20052;-45
2023/05/10 10:30:55;;;;;;;3.78;1.48;;;;;;;11.16;73.01;101391.69;5051650;28;20075;-43
2023/05/10 10:33:40;;;;;;;4.45;1.75;;;;;;;11.10;72.58;101388.81;5052296;28;20071;-44
2023/05/10 10:36:07;;;;;;;6.30;2.00;;;;;;;11.02;72.68;101393.47;5032047;28;20485;-43
2023/05/10 10:38:48;;;;;;;3.08;1.30;;;;;;;11.07;72.38;101386.50;5032090;28;20029;-44
2023/05/10 10:41:30;;;;;;;5.40;1.67;;;;;;;11.07;72.58;101393.72;5031949;28;20032;-43
2023/05/10 10:44:25;;;;;;;4.20;1.55;;;;;;;10.95;72.97;101384.56;5031724;28;20032;-43
2023/05/10 10:47:23;;;;;;;6.65;1.65;;;;;;;11.01;73.18;101389.97;5042126;28;20076;-44
2023/05/10 10:49:52;;;;;;;7.22;2.08;;;;;;;10.82;74.33;101386.09;5051867;28;20440;-45
2023/05/10 10:52:21;;;;;;;7.88;1.88;;;;;;;10.99;74.42;101388.50;5051800;28;20033;-44
2023/05/10 10:55:12;;;;;;;8.60;2.03;;;;;;;10.89;74.88;101402.25;5051456;28;20061;-46
2023/05/10 10:57:41;;;;;;;6.03;2.20;;;;;;;10.94;74.76;101399.81;5051135;28;20124;-46
2023/05/10 11:00:24;;;;;;;7.47;2.22;;;;;;;10.81;75.39;101395.16;5051731;28;20112;-44
2023/05/10 11:02:56;;;;;;;6.55;2.45;;;;;;;11.07;74.82;101396.41;5051438;28;20107;-46
2023/05/10 11:05:38;;;;;;;9.52;2.38;;;;;;;11.09;74.98;101402.38;5050457;28;20504;-44
2023/05/10 11:08:28;;;;;;;5.25;2.20;;;;;;;11.12;75.01;101396.63;5051988;28;20061;-42
2023/05/10 11:11:02;;;;;;;8.50;2.78;;;;;;;11.01;74.99;101399.84;5039980;28;20033;-46
2023/05/10 11:13:35;;;;;;;7.30;2.45;;;;;;;11.10;74.87;101404.88;5051975;28;20029;-45
2023/05/10 11:16:23;;;;;;;5.95;2.20;;;;;;;10.94;75.06;101401.63;5051951;28;20052;-44
2023/05/10 11:19:04;;;;;;;6.00;1.88;;;;;;;10.95;74.89;101397.97;5051513;28;20059;-42
2023/05/10 11:21:32;;;;;;;8.05;2.67;;;;;;;11.07;74.46;101407.13;5051191;28;20025;-43
2023/05/10 11:24:00;;;;;;;9.10;2.67;;;;;;;10.71;75.86;101405.38;5051423;28;20029;-42
2023/05/10 11:26:36;;;;;;;6.80;2.10;;;;;;;10.51;77.78;101405.22;5033646;28;20021;-44
2023/05/10 11:29:04;;;;;;;7.50;2.10;;;;;;;10.48;78.14;101416.28;5051287;28;20611;-47
2023/05/10 11:31:30;;;;;;;7.28;2.28;;;;;;;10.60;77.57;101405.91;5048664;28;20037;-45
2023/05/10 11:33:59;;;;;;;8.45;2.30;;;;;;;10.86;76.93;101407.16;5049915;28;20021;-44